Home > Products > Valid Products > MTR

000
SAUS46 KLOX 051958
MTR9L2
METAR K9L2 051956Z AUTO 23021G28KT 10SM CLR 22/03 A2980 RMK AO2 PK
WND 21029/1941 SLP081 T02170028 $





000
SAUS46 KLOX 051949
MTRSDB
METAR KSDB 051948Z AUTO 17018G28KT 10SM BKN016 14/04 A2991 RMK AO2
PK WND 19028/1943 SLP099 T01390039 $





000
SAUS46 KLOX 051948
MTRCQT
METAR KCQT 051947Z AUTO VRB04KT 10SM OVC042 18/11 A2992 RMK AO2
SLP129 T01830106





000
SAUS46 KLOX 051934
MTRSDB
SPECI KSDB 051933Z AUTO 17017G26KT 10SM BKN016 13/04 A2992 RMK AO2
PK WND 18026/1925 T01280044 $





000
SAUS46 KLOX 051916
MTRSDB
SPECI KSDB 051914Z AUTO 17020G26KT 10SM BKN014 13/04 A2992 RMK AO2
PK WND 18026/1856 T01330044 $





000
SAUS46 KLOX 051858
MTR9L2
METAR K9L2 051856Z AUTO 22014G23KT 10SM CLR 21/02 A2982 RMK AO2
SLP086 T02110017 $





000
SAUS46 KLOX 051858
MTR9L2
METAR K9L2 051856Z AUTO 22014G23KT 10SM CLR 21/02 A2982 RMK AO2
SLP086 T02110017 $





000
SAUS46 KLOX 051849
MTRCQT
METAR KCQT 051847Z AUTO 25004KT 10SM BKN030 BKN037 OVC065 18/11
A2991 RMK AO2 SLP128 T01830106





000
SAUS46 KLOX 051849
MTRSDB
METAR KSDB 051848Z AUTO 18018G24KT 10SM FEW011 13/04 A2992 RMK AO2
PK WND 18026/1749 SLP101 T01280044 $





000
SAUS46 KLOX 051849
MTRCQT
METAR KCQT 051847Z AUTO 25004KT 10SM BKN030 BKN037 OVC065 18/11
A2991 RMK AO2 SLP128 T01830106





000
SAUS46 KLOX 051829
MTRSDB
SPECI KSDB 051827Z AUTO 18017G24KT 10SM SCT011 12/04 A2991 RMK AO2
PK WND 18026/1749 T01170044 $





000
SAUS46 KLOX 051829
MTRSDB
SPECI KSDB 051827Z AUTO 18017G24KT 10SM SCT011 12/04 A2991 RMK AO2
PK WND 18026/1749 T01170044 $





000
SAUS46 KLOX 051809
MTRCQT
SPECI KCQT 051808Z AUTO 00000KT 10SM SCT027 BKN035 OVC060 18/11
A2991 RMK AO2 T01830111





000
SAUS46 KLOX 051809
MTRCQT
SPECI KCQT 051808Z AUTO 00000KT 10SM SCT027 BKN035 OVC060 18/11
A2991 RMK AO2 T01830111





000
SAUS46 KLOX 051758
MTR9L2
METAR K9L2 051756Z AUTO 23017G27KT 10SM CLR 19/03 A2983 RMK AO2 PK
WND 21027/1754 SLP090 T01890028 10194 20111 56008 $





000
SAUS46 KLOX 051758
MTR9L2
METAR K9L2 051756Z AUTO 23017G27KT 10SM CLR 19/03 A2983 RMK AO2 PK
WND 21027/1754 SLP090 T01890028 10194 20111 56008 $





000
SAUS46 KLOX 051749
MTRSDB
METAR KSDB 051748Z AUTO 20016G23KT 10SM BKN010 11/04 A2992 RMK AO2
SLP102 T01060044 10111 20061 51001 $





000
SAUS46 KLOX 051749
MTRSDB
METAR KSDB 051748Z AUTO 20016G23KT 10SM BKN010 11/04 A2992 RMK AO2
SLP102 T01060044 10111 20061 51001 $





000
SAUS46 KLOX 051748
MTRCQT
METAR KCQT 051747Z AUTO 00000KT 10SM BKN029 BKN039 OVC060 18/12
A2991 RMK AO2 SLP125 T01830117 10183 20150 58001





000
SAUS46 KLOX 051748
MTRCQT
METAR KCQT 051747Z AUTO 00000KT 10SM BKN029 BKN039 OVC060 18/12
A2991 RMK AO2 SLP125 T01830117 10183 20150 58001





000
SAUS46 KLOX 051704
MTRCQT
SPECI KCQT 051703Z AUTO 24003KT 10SM BKN025 BKN032 OVC055 18/11
A2990 RMK AO2 T01780111





000
SAUS46 KLOX 051704
MTRCQT
SPECI KCQT 051703Z AUTO 24003KT 10SM BKN025 BKN032 OVC055 18/11
A2990 RMK AO2 T01780111





000
SAUS46 KLOX 051657
MTR9L2
METAR K9L2 051656Z AUTO 22018G23KT 10SM CLR 18/03 A2984 RMK AO2
SLP093 T01780033 $





000
SAUS46 KLOX 051657
MTR9L2
METAR K9L2 051656Z AUTO 22018G23KT 10SM CLR 18/03 A2984 RMK AO2
SLP093 T01780033 $





000
SAUS46 KLOX 051649
MTRSDB
METAR KSDB 051648Z AUTO 18016G22KT 10SM OVC010 09/04 A2992 RMK AO2
CIG 007V013 SLP102 T00940039 $





000
SAUS46 KLOX 051648
MTRCQT
METAR KCQT 051647Z AUTO 00000KT 10SM SCT025 OVC032 18/12 A2991 RMK
AO2 SLP126 T01780117





000
SAUS46 KLOX 051648
MTRCQT
METAR KCQT 051647Z AUTO 00000KT 10SM SCT025 OVC032 18/12 A2991 RMK
AO2 SLP126 T01780117





000
SAUS46 KLOX 051644
MTRCQT
SPECI KCQT 051643Z AUTO VRB03KT 10SM BKN027 BKN032 OVC055 17/11
A2991 RMK AO2 T01720111





000
SAUS46 KLOX 051644
MTRCQT
SPECI KCQT 051643Z AUTO VRB03KT 10SM BKN027 BKN032 OVC055 17/11
A2991 RMK AO2 T01720111





000
SAUS46 KLOX 051558
MTR9L2
METAR K9L2 051556Z AUTO 23017KT 10SM CLR 15/03 A2984 RMK AO2 SLP096
T01500033 $





000
SAUS46 KLOX 051549
MTRSDB
METAR KSDB 051548Z AUTO 18018KT 10SM OVC012 09/03 A2992 RMK AO2
SLP101 T00890033 $





000
SAUS46 KLOX 051548
MTRCQT
METAR KCQT 051547Z AUTO 00000KT 10SM SCT025 OVC050 17/11 A2991 RMK
AO2 SLP126 T01670111





000
SAUS46 KLOX 051548
MTRCQT
METAR KCQT 051547Z AUTO 00000KT 10SM SCT025 OVC050 17/11 A2991 RMK
AO2 SLP126 T01670111





000
SAUS46 KLOX 051527
MTRCQT
SPECI KCQT 051526Z AUTO 00000KT 10SM SCT024 BKN033 OVC050 17/11
A2991 RMK AO2 T01670111





000
SAUS46 KLOX 051458
MTR9L2
METAR K9L2 051456Z AUTO 24014G21KT 10SM CLR 14/04 A2985 RMK AO2
SLP101 T01390039 53009 $





000
SAUS46 KLOX 051458
MTR9L2
METAR K9L2 051456Z AUTO 24014G21KT 10SM CLR 14/04 A2985 RMK AO2
SLP101 T01390039 53009 $





000
SAUS46 KLOX 051449
MTRSDB
METAR KSDB 051448Z AUTO 18017G21KT 10SM SCT007 OVC012 08/04 A2991
RMK AO2 SLP099 T00830044 53002 $





000
SAUS46 KLOX 051448
MTRCQT
METAR KCQT 051447Z AUTO 00000KT 10SM BKN024 OVC050 16/12 A2991 RMK
AO2 SLP127 T01610117 53002





000
SAUS46 KLOX 051448
MTRCQT
METAR KCQT 051447Z AUTO 00000KT 10SM BKN024 OVC050 16/12 A2991 RMK
AO2 SLP127 T01610117 53002





000
SAUS46 KLOX 051444
MTRCQT
SPECI KCQT 051442Z AUTO 00000KT 10SM BKN024 OVC050 16/12 A2991 RMK
AO2 T01610117





000
SAUS46 KLOX 051437
MTRCQT
SPECI KCQT 051435Z AUTO 00000KT 10SM SCT024 OVC050 16/12 A2991 RMK
AO2 T01610117





000
SAUS46 KLOX 051437
MTRCQT
SPECI KCQT 051435Z AUTO 00000KT 10SM SCT024 OVC050 16/12 A2991 RMK
AO2 T01610117





000
SAUS46 KLOX 051422
MTRSDB
SPECI KSDB 051420Z AUTO 21014KT 10SM BKN007 OVC011 07/04 A2991 RMK
AO2 CIG 005V010 T00720044 $





000
SAUS46 KLOX 051422
MTRCQT
SPECI KCQT 051421Z AUTO 00000KT 10SM BKN023 OVC050 16/11 A2991 RMK
AO2 T01610111





000
SAUS46 KLOX 051358
MTR9L2
METAR K9L2 051356Z AUTO 23011KT 10SM CLR 12/04 A2984 RMK AO2 PK WND
22027/1307 SLP095 T01220044 $





000
SAUS46 KLOX 051358
MTR9L2
METAR K9L2 051356Z AUTO 23011KT 10SM CLR 12/04 A2984 RMK AO2 PK WND
22027/1307 SLP095 T01220044 $





000
SAUS46 KLOX 051352 COR
MTRSDB
METAR KSDB 051348Z AUTO 19012KT 10SM SCT006 OVC011 07/04 A2990 RMK
AO2 CIG 008V012 SLP096 T00670044 $





000
SAUS46 KLOX 051351 COR
MTRCQT
METAR KCQT 051347Z AUTO 27003KT 10SM OVC050 16/11 A2990 RMK AO2
SLP124 T01560111





000
SAUS46 KLOX 051351 COR
MTRCQT
METAR KCQT 051347Z AUTO 27003KT 10SM OVC050 16/11 A2990 RMK AO2
SLP124 T01560111





000
SAUS46 KLOX 051257
MTR9L2
METAR K9L2 051256Z AUTO 23019G28KT 10SM CLR 12/05 A2982 RMK AO2 PK
WND 24028/1254 SLP086 T01170050 $





000
SAUS46 KLOX 051257
MTR9L2
METAR K9L2 051256Z AUTO 23019G28KT 10SM CLR 12/05 A2982 RMK AO2 PK
WND 24028/1254 SLP086 T01170050 $





000
SAUS46 KLOX 051250 COR
MTRCQT
METAR KCQT 051247Z AUTO 00000KT 10SM OVC048 16/11 A2989 RMK AO2
SLP121 T01560111





000
SAUS46 KLOX 051250 COR
MTRCQT
METAR KCQT 051247Z AUTO 00000KT 10SM OVC048 16/11 A2989 RMK AO2
SLP121 T01560111





000
SAUS46 KLOX 051249
MTRSDB
METAR KSDB 051248Z AUTO 19013G21KT 10SM OVC006 07/04 A2990 RMK AO2
SLP092 T00670044 $





000
SAUS46 KLOX 051249
MTRSDB
METAR KSDB 051248Z AUTO 19013G21KT 10SM OVC006 07/04 A2990 RMK AO2
SLP092 T00670044 $





000
SAUS46 KLOX 051243 COR
MTRSDB
SPECI KSDB 051241Z AUTO 18014G21KT 10SM SCT002 OVC007 07/04 A2990
RMK AO2 T00670044 $





000
SAUS46 KLOX 051243 COR
MTRSDB
SPECI KSDB 051241Z AUTO 18014G21KT 10SM SCT002 OVC007 07/04 A2990
RMK AO2 T00670044 $





000
SAUS46 KLOX 051233
MTRSDB
SPECI KSDB 051232Z AUTO 18014G19KT 3SM BR BKN002 OVC007 06/04 A2990
RMK AO2 T00610044 $





000
SAUS46 KLOX 051233
MTRSDB
SPECI KSDB 051232Z AUTO 18014G19KT 3SM BR BKN002 OVC007 06/04 A2990
RMK AO2 T00610044 $





000
SAUS46 KLOX 051232
MTRSDB
SPECI KSDB 051230Z AUTO 19014G19KT 1 3/4SM BR BKN002 OVC007 06/04
A2991 RMK AO2 T00610044 $





000
SAUS46 KLOX 051232
MTRSDB
SPECI KSDB 051230Z AUTO 19014G19KT 1 3/4SM BR BKN002 OVC007 06/04
A2991 RMK AO2 T00610044 $





000
SAUS46 KLOX 051226 COR
MTRSDB
SPECI KSDB 051224Z AUTO 20013KT 1SM BR BKN002 OVC007 06/05 A2990 RMK
AO2 T00610050 $





000
SAUS46 KLOX 051226 COR
MTRSDB
SPECI KSDB 051224Z AUTO 20013KT 1SM BR BKN002 OVC007 06/05 A2990 RMK
AO2 T00610050 $





000
SAUS46 KLOX 051218 COR
MTRSDB
SPECI KSDB 051216Z AUTO 21013G21KT 1 3/4SM BR BKN002 OVC006 07/05
A2990 RMK AO2 VIS 1V5 T00670050 $





000
SAUS46 KLOX 051218 COR
MTRSDB
SPECI KSDB 051216Z AUTO 21013G21KT 1 3/4SM BR BKN002 OVC006 07/05
A2990 RMK AO2 VIS 1V5 T00670050 $





000
SAUS46 KLOX 051157
MTR9L2
METAR K9L2 051156Z AUTO 23011G20KT 10SM CLR 12/05 A2982 RMK AO2
SLP087 T01170050 10178 20117 58005 $





000
SAUS46 KLOX 051157
MTR9L2
METAR K9L2 051156Z AUTO 23011G20KT 10SM CLR 12/05 A2982 RMK AO2
SLP087 T01170050 10178 20117 58005 $





000
SAUS46 KLOX 051150 COR
MTRCQT
METAR KCQT 051147Z AUTO 00000KT 10SM OVC046 16/11 A2991 RMK AO2
SLP125 T01560111 10161 20150 56004





000
SAUS46 KLOX 051149
MTRSDB
METAR KSDB 051148Z AUTO 18015G22KT 9SM BKN004 07/04 A2991 RMK AO2
CIG 002V006 SLP090 T00670044 10089 20067 56004 $





000
SAUS46 KLOX 051134
MTRSDB
SPECI KSDB 051133Z AUTO 19017G22KT 10SM SCT004 07/04 A2991 RMK AO2
T00670044 $





000
SAUS46 KLOX 051134
MTRSDB
SPECI KSDB 051133Z AUTO 19017G22KT 10SM SCT004 07/04 A2991 RMK AO2
T00670044 $





000
SAUS46 KLOX 051114
MTRSDB
SPECI KSDB 051113Z AUTO 18014G21KT 3SM BR BKN002 OVC006 07/04 A2990
RMK AO2 T00670044 $





000
SAUS46 KLOX 051114
MTRSDB
SPECI KSDB 051113Z AUTO 18014G21KT 3SM BR BKN002 OVC006 07/04 A2990
RMK AO2 T00670044 $





000
SAUS46 KLOX 051058
MTR9L2
METAR K9L2 051056Z AUTO 24010KT 10SM CLR 12/05 A2983 RMK AO2 SLP089
T01220050 $





000
SAUS46 KLOX 051058
MTR9L2
METAR K9L2 051056Z AUTO 24010KT 10SM CLR 12/05 A2983 RMK AO2 SLP089
T01220050 $





000
SAUS46 KLOX 051056 COR
MTRSDB
SPECI KSDB 051053Z AUTO 18013KT 1/2SM FG BKN003 OVC008 07/05 A2991
RMK AO2 T00670050 $





000
SAUS46 KLOX 051056 COR
MTRSDB
SPECI KSDB 051053Z AUTO 18013KT 1/2SM FG BKN003 OVC008 07/05 A2991
RMK AO2 T00670050 $





000
SAUS46 KLOX 051050 COR
MTRCQT
METAR KCQT 051047Z AUTO 00000KT 10SM OVC045 15/11 A2991 RMK AO2
SLP126 T01500111





000
SAUS46 KLOX 051049
MTRSDB
METAR KSDB 051048Z AUTO 18015KT 1SM BR BKN003 OVC008 07/05 A2991 RMK
AO2 VIS 1/2V2 1/2 SLP092 T00670050 $





000
SAUS46 KLOX 051047 COR
MTRSDB
SPECI KSDB 051044Z AUTO 19013KT 1 3/4SM BR BKN003 OVC008 07/06 A2991
RMK AO2 T00670056 $





000
SAUS46 KLOX 051009 COR
MTRSDB
SPECI KSDB 051006Z AUTO 19014G20KT 6SM BR BKN003 07/05 A2991 RMK AO2
T00670050 $





000
SAUS46 KLOX 051009 COR
MTRSDB
SPECI KSDB 051006Z AUTO 19014G20KT 6SM BR BKN003 07/05 A2991 RMK AO2
T00670050 $





000
SAUS46 KLOX 050959
MTRSDB
SPECI KSDB 050958Z AUTO 18014G21KT 7SM SCT002 07/05 A2991 RMK AO2
T00670050 $





000
SAUS46 KLOX 050959
MTRSDB
SPECI KSDB 050958Z AUTO 18014G21KT 7SM SCT002 07/05 A2991 RMK AO2
T00670050 $





000
SAUS46 KLOX 050957
MTR9L2
METAR K9L2 050956Z AUTO 22009KT 10SM CLR 13/04 A2983 RMK AO2 SLP085
T01330044 $





000
SAUS46 KLOX 050957
MTR9L2
METAR K9L2 050956Z AUTO 22009KT 10SM CLR 13/04 A2983 RMK AO2 SLP085
T01330044 $





000
SAUS46 KLOX 050950
MTRSDB
METAR KSDB 050948Z AUTO 19011G20KT 6SM BR BKN002 BKN006 07/05 A2990
RMK AO2 SLP086 T00670050 $





000
SAUS46 KLOX 050949 COR
MTRCQT
METAR KCQT 050947Z AUTO 00000KT 10SM OVC043 15/12 A2990 RMK AO2
SLP125 T01500117





000
SAUS46 KLOX 050921
MTRSDB
SPECI KSDB 050920Z AUTO 18015G21KT 3SM BR BKN002 BKN006 07/04 A2991
RMK AO2 T00670044 $





000
SAUS46 KLOX 050911 COR
MTRSDB
SPECI KSDB 050908Z AUTO 19012KT 3/4SM BR OVC002 07/06 A2991 RMK AO2
T00720056 $





000
SAUS46 KLOX 050904
MTRSDB
SPECI KSDB 050903Z AUTO 20012KT 1 3/4SM BR BKN002 OVC007 07/06 A2991
RMK AO2 VIS 3/4V3 T00720056 $





000
SAUS46 KLOX 050904
MTRSDB
SPECI KSDB 050903Z AUTO 20012KT 1 3/4SM BR BKN002 OVC007 07/06 A2991
RMK AO2 VIS 3/4V3 T00720056 $





000
SAUS46 KLOX 050900
MTR9L2
METAR K9L2 050856Z AUTO 22011KT 10SM CLR 14/04 A2984 RMK AO2 SLP089
T01390044 58004 $





000
SAUS46 KLOX 050850 COR
MTRCQT
METAR KCQT 050847Z AUTO 27003KT 10SM OVC036 16/11 A2992 RMK AO2
SLP129 T01560111 58010





000
SAUS46 KLOX 050849
MTRSDB
METAR KSDB 050848Z AUTO 19013G20KT 5SM BR BKN002 OVC007 07/06 A2992
RMK AO2 SLP092 T00720056 58009 $





000
SAUS46 KLOX 050847 COR
MTRSDB
SPECI KSDB 050844Z AUTO 21014G20KT 4SM BR BKN002 OVC007 07/06 A2992
RMK AO2 T00720056 $





000
SAUS46 KLOX 050835
MTRSDB
SPECI KSDB 050836Z AUTO 21012KT 2SM BR OVC002 07/06 A2992 RMK AO2
VIS 1 1/4V3 T00720056 $





000
SAUS46 KLOX 050827
MTRSDB
SPECI KSDB 050828Z AUTO 20012KT 1/2SM FG VV002 08/06 A2992 RMK AO2
T00780061 $





000
SAUS46 KLOX 050824
MTRSDB
SPECI KSDB 050824Z AUTO 21015KT 1/4SM FG VV002 08/06 A2992 RMK AO2
T00780061 $





000
SAUS46 KLOX 050818
MTRSDB
SPECI KSDB 050816Z AUTO 20015G21KT 3/4SM BR VV002 08/06 A2992 RMK
AO2 VIS 1/4V4 T00780061 $





000
SAUS46 KLOX 050812 COR
MTRSDB
SPECI KSDB 050810Z AUTO 18016G22KT 1 3/4SM BR BKN002 OVC006 08/06
A2992 RMK AO2 VIS 1/2V4 T00780061 $





000
SAUS46 KLOX 050801
MTRSDB
SPECI KSDB 050800Z AUTO 18017G22KT 3/4SM BR BKN002 OVC006 08/06
A2993 RMK AO2 T00780061 $





000
SAUS46 KLOX 050758
MTR9L2
METAR K9L2 050756Z AUTO 23010KT 10SM CLR 14/06 A2985 RMK AO2 SLP093
T01440056 403220094 $





000
SAUS46 KLOX 050757 COR
MTRSDB
SPECI KSDB 050755Z AUTO 18017KT 1 3/4SM BR BKN002 OVC006 08/06 A2993
RMK AO2 T00780061 $





000
SAUS46 KLOX 050750 COR
MTRCQT
METAR KCQT 050747Z AUTO VRB03KT 10SM OVC036 16/11 A2993 RMK AO2
SLP132 T01560111 402060133





000
SAUS46 KLOX 050749
MTRSDB
METAR KSDB 050748Z AUTO 18017KT 4SM BR BKN003 OVC006 08/06 A2993 RMK
AO2 CIG 001V005 SLP096 T00780056 402280078 $





000
SAUS46 KLOX 050742 COR
MTRSDB
SPECI KSDB 050739Z AUTO 18017KT 5SM BR OVC003 08/06 A2993 RMK AO2
T00780056 $





000
SAUS46 KLOX 050728 COR
MTRSDB
SPECI KSDB 050726Z AUTO 19013G24KT 4SM BR OVC001 08/06 A2994 RMK AO2
T00780061 $





000
SAUS46 KLOX 050723
MTRSDB
SPECI KSDB 050722Z AUTO 18015G24KT 2 1/2SM BR BKN001 OVC005 08/06
A2993 RMK AO2 T00780061 $





000
SAUS46 KLOX 050706 COR
MTRSDB
SPECI KSDB 050703Z AUTO 19013KT 1/4SM FG VV001 08/07 A2994 RMK AO2
T00830067 $





000
SAUS46 KLOX 050658
MTRSDB
SPECI KSDB 050657Z AUTO 20014KT 1/2SM FG VV002 08/07 A2994 RMK AO2
T00830067 $





000
SAUS46 KLOX 050658
MTR9L2
METAR K9L2 050656Z AUTO 00000KT 10SM CLR 17/02 A2986 RMK AO2 SLP095
T01670022 $





000
SAUS46 KLOX 050650 COR
MTRCQT
METAR KCQT 050647Z AUTO VRB03KT 10SM OVC031 16/11 A2994 RMK AO2
SLP137 T01610111





000
SAUS46 KLOX 050650 COR
MTRCQT
METAR KCQT 050647Z AUTO VRB03KT 10SM OVC031 16/11 A2994 RMK AO2
SLP137 T01610111





000
SAUS46 KLOX 050649
MTRSDB
METAR KSDB 050648Z AUTO 18015G20KT 1/4SM FG VV001 08/07 A2994 RMK
AO2 SLP098 T00830067 $





000
SAUS46 KLOX 050649
MTRSDB
METAR KSDB 050648Z AUTO 18015G20KT 1/4SM FG VV001 08/07 A2994 RMK
AO2 SLP098 T00830067 $





000
SAUS46 KLOX 050557
MTR9L2
METAR K9L2 050556Z AUTO 26011KT 10SM CLR 17/05 A2985 RMK AO2 SLP095
T01720050 10283 20172 50005 $





000
SAUS46 KLOX 050557
MTR9L2
METAR K9L2 050556Z AUTO 26011KT 10SM CLR 17/05 A2985 RMK AO2 SLP095
T01720050 10283 20172 50005 $





000
SAUS46 KLOX 050550
MTRSDB
METAR KSDB 050548Z AUTO 18014KT 1/4SM FG VV001 09/07 A2995 RMK AO2
SLP103 T00890072 10194 20089 50003 $





000
SAUS46 KLOX 050550
MTRSDB
METAR KSDB 050548Z AUTO 18014KT 1/4SM FG VV001 09/07 A2995 RMK AO2
SLP103 T00890072 10194 20089 50003 $





000
SAUS46 KLOX 050549 COR
MTRCQT
METAR KCQT 050547Z AUTO 00000KT 10SM OVC031 16/11 A2995 RMK AO2
SLP139 T01610111 10194 20156 51012





000
SAUS46 KLOX 050513
MTRSDB
SPECI KSDB 050513Z AUTO 18009KT 1/4SM FG VV001 09/08 A2996 RMK AO2
T00940078 $





000
SAUS46 KLOX 050513
MTRSDB
SPECI KSDB 050513Z AUTO 18009KT 1/4SM FG VV001 09/08 A2996 RMK AO2
T00940078 $





000
SAUS46 KLOX 050508 COR
MTRSDB
SPECI KSDB 050506Z AUTO 17010KT 1 1/4SM BR OVC002 10/08 A2996 RMK
AO2 T01000078 $





000
SAUS46 KLOX 050508 COR
MTRSDB
SPECI KSDB 050506Z AUTO 17010KT 1 1/4SM BR OVC002 10/08 A2996 RMK
AO2 T01000078 $





000
SAUS46 KLOX 050506 COR
MTRCQT
SPECI KCQT 050504Z AUTO VRB04KT 10SM SCT024 OVC031 16/11 A2994 RMK
AO2 T01610111





000
SAUS46 KLOX 050502
MTRSDB
SPECI KSDB 050501Z AUTO 18008KT 2 1/2SM BR OVC002 10/08 A2996 RMK
AO2 T01000078 $





000
SAUS46 KLOX 050502
MTRSDB
SPECI KSDB 050501Z AUTO 18008KT 2 1/2SM BR OVC002 10/08 A2996 RMK
AO2 T01000078 $





000
SAUS46 KLOX 050500
MTR9L2
METAR K9L2 050456Z AUTO 23013G19KT 10SM CLR 18/04 A2986 RMK AO2
SLP097 T01830044 $





000
SAUS46 KLOX 050500
MTR9L2
METAR K9L2 050456Z AUTO 23013G19KT 10SM CLR 18/04 A2986 RMK AO2
SLP097 T01830044 $





000
SAUS46 KLOX 050449
MTRSDB
METAR KSDB 050448Z AUTO 18007KT 6SM BR OVC003 10/08 A2996 RMK AO2
SLP107 T01000083 $





000
SAUS46 KLOX 050449
MTRSDB
METAR KSDB 050448Z AUTO 18007KT 6SM BR OVC003 10/08 A2996 RMK AO2
SLP107 T01000083 $





000
SAUS46 KLOX 050449 COR
MTRCQT
METAR KCQT 050447Z AUTO VRB03KT 10SM OVC021 16/11 A2994 RMK AO2
SLP138 T01560111





000
SAUS46 KLOX 050449 COR
MTRCQT
METAR KCQT 050447Z AUTO VRB03KT 10SM OVC021 16/11 A2994 RMK AO2
SLP138 T01560111





000
SAUS46 KLOX 050431 COR
MTRSDB
SPECI KSDB 050428Z AUTO 17011KT 7SM BKN004 11/08 A2995 RMK AO2 CIG
002V007 T01060083 $





000
SAUS46 KLOX 050426 COR
MTRCQT
SPECI KCQT 050423Z AUTO 00000KT 10SM BKN019 16/11 A2994 RMK AO2
T01560111





000
SAUS46 KLOX 050426 COR
MTRCQT
SPECI KCQT 050423Z AUTO 00000KT 10SM BKN019 16/11 A2994 RMK AO2
T01560111





000
SAUS46 KLOX 050420 COR
MTRSDB
SPECI KSDB 050417Z AUTO 18012G19KT 10SM FEW006 11/08 A2995 RMK AO2
T01060078 $





000
SAUS46 KLOX 050420 COR
MTRSDB
SPECI KSDB 050417Z AUTO 18012G19KT 10SM FEW006 11/08 A2995 RMK AO2
T01060078 $





000
SAUS46 KLOX 050357
MTR9L2
METAR K9L2 050356Z AUTO 24018G26KT 10SM CLR 19/05 A2984 RMK AO2 PK
WND 25026/0354 SLP093 T01890050 $





000
SAUS46 KLOX 050350 COR
MTRCQT
METAR KCQT 050347Z AUTO 27004KT 10SM SCT017 16/11 A2993 RMK AO2
SLP135 T01560111





000
SAUS46 KLOX 050350 COR
MTRCQT
METAR KCQT 050347Z AUTO 27004KT 10SM SCT017 16/11 A2993 RMK AO2
SLP135 T01560111





000
SAUS46 KLOX 050349
MTRSDB
METAR KSDB 050348Z AUTO 19011G19KT 10SM CLR 12/07 A2995 RMK AO2
SLP100 T01170067 $





000
SAUS46 KLOX 050331 COR
MTRCQT
SPECI KCQT 050328Z AUTO 27004KT 10SM SCT017 16/11 A2992 RMK AO2
T01560111





000
SAUS46 KLOX 050300
MTR9L2
METAR K9L2 050256Z AUTO 24015KT 10SM CLR 21/04 A2984 RMK AO2 PK WND
23028/0210 SLP093 T02060044 53014 $





000
SAUS46 KLOX 050300
MTR9L2
METAR K9L2 050256Z AUTO 24015KT 10SM CLR 21/04 A2984 RMK AO2 PK WND
23028/0210 SLP093 T02060044 53014 $





000
SAUS46 KLOX 050259
MTRCQT
SPECI KCQT 050258Z AUTO VRB04KT 10SM BKN017 16/11 A2992 RMK AO2
T01610111





000
SAUS46 KLOX 050250 COR
MTRCQT
METAR KCQT 050247Z AUTO 27006KT 10SM FEW017 16/11 A2991 RMK AO2
SLP127 T01610111 53009





000
SAUS46 KLOX 050249
MTRSDB
METAR KSDB 050248Z AUTO 18016G22KT 10SM CLR 13/03 A2994 RMK AO2
SLP100 T01330028 55004 $





000
SAUS46 KLOX 050249
MTRSDB
METAR KSDB 050248Z AUTO 18016G22KT 10SM CLR 13/03 A2994 RMK AO2
SLP100 T01330028 55004 $





000
SAUS46 KLOX 050157
MTR9L2
METAR K9L2 050156Z AUTO 24018G27KT 10SM CLR 23/04 A2981 RMK AO2 PK
WND 24029/0106 SLP084 T02280039 $





000
SAUS46 KLOX 050157
MTR9L2
METAR K9L2 050156Z AUTO 24018G27KT 10SM CLR 23/04 A2981 RMK AO2 PK
WND 24029/0106 SLP084 T02280039 $





000
SAUS46 KLOX 050150
MTRSDB
METAR KSDB 050148Z AUTO 18014G22KT 10SM CLR 16/02 A2994 RMK AO2
SLP099 T01560022 $





000
SAUS46 KLOX 050150 COR
MTRCQT
METAR KCQT 050147Z AUTO VRB03KT 10SM CLR 17/11 A2990 RMK AO2 SLP122
T01670111





000
SAUS46 KLOX 050057
MTR9L2
METAR K9L2 050056Z AUTO 25020G27KT 10SM CLR 26/03 A2980 RMK AO2 PK
WND 23030/0006 SLP081 T02560033 $





000
SAUS46 KLOX 050057
MTR9L2
METAR K9L2 050056Z AUTO 25020G27KT 10SM CLR 26/03 A2980 RMK AO2 PK
WND 23030/0006 SLP081 T02560033 $





000
SAUS45 KLOX 050053 COR
MTRCQT
METAR KCQT 050047Z AUTO VRB03KT 10SM CLR 18/11 A2989 RMK AO2 SLP121
T01780111





000
SAUS46 KLOX 050049
MTRSDB
METAR KSDB 050048Z AUTO 18014KT 10SM CLR 17/03 A2995 RMK AO2 SLP102
T01670028 $





000
SAUS46 KLOX 050049
MTRSDB
METAR KSDB 050048Z AUTO 18014KT 10SM CLR 17/03 A2995 RMK AO2 SLP102
T01670028 $





000
SAUS46 KLOX 042357
MTR9L2
METAR K9L2 042356Z AUTO 23024G31KT 10SM CLR 28/02 A2979 RMK AO2 PK
WND 23031/2356 SLP076 T02830022 10322 20261 55016 $





000
SAUS46 KLOX 042357
MTR9L2
METAR K9L2 042356Z AUTO 23024G31KT 10SM CLR 28/02 A2979 RMK AO2 PK
WND 23031/2356 SLP076 T02830022 10322 20261 55016 $





000
SAUS46 KLOX 042350 COR
MTRCQT
METAR KCQT 042347Z AUTO VRB04KT 10SM CLR 19/12 A2988 RMK AO2 SLP118
T01940122 10206 20161 58014





000
SAUS46 KLOX 042350
MTRSDB
METAR KSDB 042348Z AUTO 20016G22KT 10SM CLR 19/03 A2996 RMK AO2
SLP100 T01940033 10228 20194 58010 $





000
SAUS46 KLOX 042350 COR
MTRCQT
METAR KCQT 042347Z AUTO VRB04KT 10SM CLR 19/12 A2988 RMK AO2 SLP118
T01940122 10206 20161 58014





000
SAUS46 KLOX 042258
MTRCQT
SPECI KCQT 042257Z AUTO VRB04KT 10SM SCT023 19/12 A2990 RMK AO2
T01890122





000
SAUS46 KLOX 042258
MTR9L2
METAR K9L2 042256Z AUTO 21019G29KT 10SM CLR 31/M03 A2979 RMK AO2 PK
WND 22029/2250 SLP072 T03111033 $





000
SAUS46 KLOX 042258
MTR9L2
METAR K9L2 042256Z AUTO 21019G29KT 10SM CLR 31/M03 A2979 RMK AO2 PK
WND 22029/2250 SLP072 T03111033 $





000
SAUS46 KLOX 042258
MTRCQT
SPECI KCQT 042257Z AUTO VRB04KT 10SM SCT023 19/12 A2990 RMK AO2
T01890122





000
SAUS46 KLOX 042250 COR
MTRCQT
METAR KCQT 042247Z AUTO VRB04KT 10SM BKN022 18/12 A2990 RMK AO2
SLP125 T01830122





000
SAUS46 KLOX 042249
MTRSDB
METAR KSDB 042248Z AUTO 17015G25KT 10SM CLR 20/03 A2997 RMK AO2 PK
WND 20027/2205 SLP103 T02000028 $





000
SAUS46 KLOX 042157
MTR9L2
METAR K9L2 042156Z AUTO 22015G24KT 10SM CLR 32/M03 A2982 RMK AO2
SLP082 T03171028 $





000
SAUS46 KLOX 042157
MTR9L2
METAR K9L2 042156Z AUTO 22015G24KT 10SM CLR 32/M03 A2982 RMK AO2
SLP082 T03171028 $





000
SAUS45 KLOX 042153 COR
MTRCQT
METAR KCQT 042147Z AUTO VRB05KT 10SM OVC020 19/12 A2992 RMK AO2
SLP130 T01890122





000
SAUS46 KLOX 042149
MTRSDB
METAR KSDB 042148Z AUTO 18014G21KT 10SM CLR 22/04 A2999 RMK AO2 PK
WND 17029/2102 SLP106 T02170039 $





000
SAUS46 KLOX 042149
MTRSDB
METAR KSDB 042148Z AUTO 18014G21KT 10SM CLR 22/04 A2999 RMK AO2 PK
WND 17029/2102 SLP106 T02170039 $





000
SAUS46 KLOX 042126 COR
MTRCQT
SPECI KCQT 042122Z AUTO 10SM BKN021 19/12 A2992 RMK AO2 T01940122





000
SAUS46 KLOX 042126 COR
MTRCQT
SPECI KCQT 042122Z AUTO 10SM BKN021 19/12 A2992 RMK AO2 T01940122





000
SAUS45 KLOX 042121 COR
MTRCQT
SPECI KCQT 042115Z AUTO VRB04KT 10SM SCT021 19/12 A2992 RMK AO2
T01890122





000
SAUS46 KLOX 042112 COR
MTRCQT
SPECI KCQT 042109Z AUTO VRB05KT 10SM BKN021 19/12 A2992 RMK AO2
T01890122





000
SAUS46 KLOX 042057
MTR9L2
METAR K9L2 042056Z AUTO 24010G15KT 10SM SCT090 31/M01 A2984 RMK AO2
SLP089 T03061006 58020 $





000
SAUS46 KLOX 042057
MTR9L2
METAR K9L2 042056Z AUTO 24010G15KT 10SM SCT090 31/M01 A2984 RMK AO2
SLP089 T03061006 58020 $





000
SAUS46 KLOX 042050 COR
MTRCQT
METAR KCQT 042047Z AUTO 26007KT 10SM SCT023 19/12 A2993 RMK AO2
SLP132 T01940122 55012





000
SAUS46 KLOX 042049
MTRSDB
METAR KSDB 042048Z AUTO 14013G24KT 10SM CLR 21/03 A2999 RMK AO2 PK
WND 17028/1950 SLP109 T02110028 56009 $





000
SAUS46 KLOX 042005 COR
MTRCQT
SPECI KCQT 042002Z AUTO VRB03KT 9SM SCT025 21/13 A2992 RMK AO2
T02060133





000
SAUS46 KLOX 041957
MTR9L2
METAR K9L2 041956Z AUTO VRB03KT 10SM CLR 29/M01 A2986 RMK AO2 SLP096
T02941006 $





000
SAUS46 KLOX 041950 COR
MTRCQT
METAR KCQT 041947Z AUTO 00000KT 8SM BKN025 BKN032 21/13 A2992 RMK
AO2 SLP132 T02060133





000
SAUS46 KLOX 041949
MTRSDB
METAR KSDB 041948Z AUTO 15023G33KT 10SM CLR 22/02 A3000 RMK AO2 PK
WND 15033/1947 SLP110 T02170022 $





000
SAUS46 KLOX 041857
MTR9L2
METAR K9L2 041856Z AUTO 21007KT 10SM CLR 28/M01 A2989 RMK AO2 SLP102
T02781006 $





000
SAUS46 KLOX 041857
MTR9L2
METAR K9L2 041856Z AUTO 21007KT 10SM CLR 28/M01 A2989 RMK AO2 SLP102
T02781006 $





000
SAUS45 KLOX 041853 COR
MTRCQT
METAR KCQT 041847Z AUTO 00000KT 6SM HZ OVC018 18/13 A2994 RMK AO2
SLP136 T01830128





000
SAUS46 KLOX 041849
MTRSDB
METAR KSDB 041848Z AUTO 17018G24KT 10SM CLR 22/03 A3001 RMK AO2
SLP114 T02170028 $





000
SAUS46 KLOX 041849
MTRSDB
METAR KSDB 041848Z AUTO 17018G24KT 10SM CLR 22/03 A3001 RMK AO2
SLP114 T02170028 $





000
SAUS46 KLOX 041831 COR
MTRCQT
SPECI KCQT 041827Z AUTO 00000KT 6SM HZ OVC016 17/13 A2995 RMK AO2
T01720128





000
SAUS46 KLOX 041831 COR
MTRCQT
SPECI KCQT 041827Z AUTO 00000KT 6SM HZ OVC016 17/13 A2995 RMK AO2
T01720128





000
SAUS46 KLOX 041757
MTR9L2
METAR K9L2 041756Z AUTO 00000KT 10SM CLR 26/M01 A2991 RMK AO2 SLP111
T02611006 10267 20094 58009 $





000
SAUS46 KLOX 041757
MTR9L2
METAR K9L2 041756Z AUTO 00000KT 10SM CLR 26/M01 A2991 RMK AO2 SLP111
T02611006 10267 20094 58009 $





000
SAUS46 KLOX 041750 COR
MTRCQT
METAR KCQT 041747Z AUTO 00000KT 6SM HZ OVC011 16/13 A2996 RMK AO2
SLP145 T01610128 10161 20139 50004





000
SAUS46 KLOX 041750 COR
MTRCQT
METAR KCQT 041747Z AUTO 00000KT 6SM HZ OVC011 16/13 A2996 RMK AO2
SLP145 T01610128 10161 20139 50004





000
SAUS46 KLOX 041749
MTRSDB
METAR KSDB 041748Z AUTO 18012KT 10SM CLR 19/03 A3002 RMK AO2 SLP118
T01940033 10194 20128 50005 $





000
SAUS46 KLOX 041749
MTRSDB
METAR KSDB 041748Z AUTO 18012KT 10SM CLR 19/03 A3002 RMK AO2 SLP118
T01940033 10194 20128 50005 $





000
SAUS46 KLOX 041726 COR
MTRCQT
SPECI KCQT 041722Z AUTO 00000KT 6SM HZ OVC010 16/13 A2996 RMK AO2
T01610128





000
SAUS46 KLOX 041657
MTR9L2
METAR K9L2 041656Z AUTO 00000KT 10SM CLR 24/00 A2992 RMK AO2 SLP116
T02390000 $





000
SAUS46 KLOX 041657
MTR9L2
METAR K9L2 041656Z AUTO 00000KT 10SM CLR 24/00 A2992 RMK AO2 SLP116
T02390000 $





000
SAUS46 KLOX 041650 COR
MTRCQT
METAR KCQT 041647Z AUTO 29003KT 5SM BR OVC009 15/13 A2996 RMK AO2
SLP146 T01500128





000
SAUS46 KLOX 041650 COR
MTRCQT
METAR KCQT 041647Z AUTO 29003KT 5SM BR OVC009 15/13 A2996 RMK AO2
SLP146 T01500128





000
SAUS46 KLOX 041649
MTRSDB
METAR KSDB 041648Z AUTO 17012KT 10SM CLR 18/03 A3003 RMK AO2 SLP122
T01780028 $





000
SAUS46 KLOX 041643 COR
MTRCQT
SPECI KCQT 041641Z AUTO VRB03KT 5SM HZ OVC009 16/13 A2996 RMK AO2
T01560128





000
SAUS46 KLOX 041558
MTR9L2
METAR K9L2 041556Z AUTO 00000KT 10SM CLR 20/01 A2993 RMK AO2 SLP121
T02000011 $





000
SAUS46 KLOX 041550 COR
MTRCQT
METAR KCQT 041547Z AUTO 00000KT 3SM HZ OVC011 16/13 A2997 RMK AO2
SLP148 T01560128





000
SAUS46 KLOX 041549
MTRSDB
METAR KSDB 041548Z AUTO 16013KT 10SM CLR 18/02 A3001 RMK AO2 SLP116
T01780022 $





000
SAUS46 KLOX 041457
MTR9L2
METAR K9L2 041456Z AUTO 00000KT 10SM CLR 16/M01 A2993 RMK AO2 SLP124
T01611006 51006 $





000
SAUS46 KLOX 041457
MTR9L2
METAR K9L2 041456Z AUTO 00000KT 10SM CLR 16/M01 A2993 RMK AO2 SLP124
T01611006 51006 $





000
SAUS46 KLOX 041451 COR
MTRCQT
METAR KCQT 041447Z AUTO 00000KT 3SM HZ OVC011 16/13 A2995 RMK AO2
SLP140 T01560128 53007





000
SAUS46 KLOX 041449
MTRSDB
METAR KSDB 041448Z AUTO 17010KT 10SM CLR 15/04 A3001 RMK AO2 SLP117
T01500039 53001 $





000
SAUS46 KLOX 041443 COR
MTRCQT
SPECI KCQT 041441Z AUTO 00000KT 2 1/2SM HZ OVC011 16/13 A2995 RMK
AO2 T01560128





000
SAUS46 KLOX 041410 COR
MTRCQT
SPECI KCQT 041407Z AUTO 14003KT 4SM HZ OVC010 15/12 A2994 RMK AO2
T01500122





000
SAUS46 KLOX 041357
MTR9L2
METAR K9L2 041356Z AUTO 00000KT 10SM CLR 13/M02 A2993 RMK AO2 SLP122
T01281017 $





000
SAUS45 KLOX 041353 COR
MTRCQT
METAR KCQT 041347Z AUTO 00000KT 5SM HZ OVC008 15/12 A2994 RMK AO2
SLP137 T01500122





000
SAUS46 KLOX 041349
MTRSDB
METAR KSDB 041348Z AUTO 18008KT 10SM CLR 13/02 A3000 RMK AO2 SLP115
T01280022 $





000
SAUS46 KLOX 041302 COR
MTR9L2
METAR K9L2 041256Z AUTO 00000KT 10SM CLR 09/M03 A2992 RMK AO2 SLP121
T00941033 $





000
SAUS46 KLOX 041302 COR
MTR9L2
METAR K9L2 041256Z AUTO 00000KT 10SM CLR 09/M03 A2992 RMK AO2 SLP121
T00941033 $





000
SAUS46 KLOX 041250 COR
MTRCQT
METAR KCQT 041247Z AUTO 00000KT 4SM BR OVC007 14/13 A2993 RMK AO2
SLP135 T01440128





000
SAUS46 KLOX 041250 COR
MTRCQT
METAR KCQT 041247Z AUTO 00000KT 4SM BR OVC007 14/13 A2993 RMK AO2
SLP135 T01440128





000
SAUS46 KLOX 041249
MTRSDB
METAR KSDB 041248Z AUTO 16005KT 10SM CLR 14/01 A3000 RMK AO2 SLP114
T01390011 $





000
SAUS46 KLOX 041249
MTRSDB
METAR KSDB 041248Z AUTO 16005KT 10SM CLR 14/01 A3000 RMK AO2 SLP114
T01390011 $





000
SAUS46 KLOX 041202 COR
MTR9L2
METAR K9L2 041156Z AUTO 00000KT 10SM CLR 11/M02 A2991 RMK AO2 SLP117
T01111022 10222 20111 56008 $





000
SAUS46 KLOX 041202 COR
MTR9L2
METAR K9L2 041156Z AUTO 00000KT 10SM CLR 11/M02 A2991 RMK AO2 SLP117
T01111022 10222 20111 56008 $





000
SAUS46 KLOX 041200
MTRCQT
SPECI KCQT 041159Z AUTO 00000KT 8SM OVC009 14/12 A2993 RMK AO2
T01390122





000
SAUS45 KLOX 041153 COR
MTRCQT
METAR KCQT 041147Z AUTO 00000KT 8SM OVC010 14/12 A2993 RMK AO2
SLP132 T01390122 10150 20133 56011





000
SAUS46 KLOX 041149
MTRSDB
METAR KSDB 041148Z AUTO 17005KT 10SM CLR 14/01 A3000 RMK AO2 SLP111
T01390011 10172 20133 56013 $





000
SAUS46 KLOX 041058
MTR9L2
METAR K9L2 041056Z AUTO 00000KT 10SM CLR 14/M01 A2992 RMK AO2 SLP118
T01391011 $





000
SAUS46 KLOX 041058
MTR9L2
METAR K9L2 041056Z AUTO 00000KT 10SM CLR 14/M01 A2992 RMK AO2 SLP118
T01391011 $





000
SAUS46 KLOX 041049
MTRSDB
METAR KSDB 041048Z AUTO 18007KT 10SM CLR 14/03 A3001 RMK AO2 SLP114
T01390028 $





000
SAUS46 KLOX 041049 COR
MTRCQT
METAR KCQT 041047Z AUTO 00000KT 7SM OVC013 14/12 A2993 RMK AO2
SLP132 T01390122





000
SAUS46 KLOX 041049 COR
MTRCQT
METAR KCQT 041047Z AUTO 00000KT 7SM OVC013 14/12 A2993 RMK AO2
SLP132 T01390122





000
SAUS46 KLOX 041049
MTRSDB
METAR KSDB 041048Z AUTO 18007KT 10SM CLR 14/03 A3001 RMK AO2 SLP114
T01390028 $





000
SAUS46 KLOX 041019 COR
MTRCQT
SPECI KCQT 041016Z AUTO 00000KT 5SM BR OVC014 13/12 A2994 RMK AO2
T01330122





000
SAUS46 KLOX 041004
MTRCQT
SPECI KCQT 041003Z AUTO 00000KT 6SM BR BKN015 14/12 A2994 RMK AO2
T01390122





000
SAUS46 KLOX 040958
MTR9L2
METAR K9L2 040956Z AUTO 00000KT 10SM CLR 14/M01 A2993 RMK AO2 SLP121
T01441011 $





000
SAUS46 KLOX 040950 COR
MTRCQT
METAR KCQT 040947Z AUTO 00000KT 7SM CLR 14/12 A2995 RMK AO2 SLP139
T01390122





000
SAUS46 KLOX 040949
MTRSDB
METAR KSDB 040948Z AUTO 17009KT 10SM CLR 14/02 A3003 RMK AO2 SLP119
T01440022 $





000
SAUS46 KLOX 040900
MTR9L2
METAR K9L2 040856Z AUTO 00000KT 10SM CLR 16/M01 A2994 RMK AO2 SLP124
T01561011 50000 $





000
SAUS46 KLOX 040850 COR
MTRCQT
METAR KCQT 040847Z AUTO 00000KT 9SM CLR 14/12 A2996 RMK AO2 SLP143
T01390117 56001





000
SAUS46 KLOX 040850 COR
MTRCQT
METAR KCQT 040847Z AUTO 00000KT 9SM CLR 14/12 A2996 RMK AO2 SLP143
T01390117 56001





000
SAUS46 KLOX 040849
MTRSDB
METAR KSDB 040848Z AUTO 19013KT 10SM CLR 14/03 A3005 RMK AO2 SLP124
T01390028 58007 $





000
SAUS46 KLOX 040800
MTR9L2
METAR K9L2 040756Z AUTO 15005KT 10SM CLR 17/M01 A2994 RMK AO2 SLP124
T01671006 403060083 $





000
SAUS46 KLOX 040750 COR
MTRCQT
METAR KCQT 040747Z AUTO 00000KT 10SM CLR 14/12 A2996 RMK AO2 SLP145
T01440122 402500139





000
SAUS46 KLOX 040750
MTRSDB
METAR KSDB 040748Z AUTO 19009KT 10SM CLR 14/02 A3006 RMK AO2 SLP129
T01440022 402560139 $





000
SAUS46 KLOX 040658
MTR9L2
METAR K9L2 040656Z AUTO VRB03KT 10SM CLR 22/00 A2995 RMK AO2 SLP122
T02170000 $





000
SAUS46 KLOX 040650 COR
MTRCQT
METAR KCQT 040647Z AUTO 00000KT 10SM CLR 14/12 A2995 RMK AO2 SLP142
T01440122





000
SAUS46 KLOX 040650 COR
MTRCQT
METAR KCQT 040647Z AUTO 00000KT 10SM CLR 14/12 A2995 RMK AO2 SLP142
T01440122





000
SAUS46 KLOX 040649
MTRSDB
METAR KSDB 040648Z AUTO 20009KT 10SM CLR 15/03 A3007 RMK AO2 SLP133
T01500028 $





000
SAUS46 KLOX 040649
MTRSDB
METAR KSDB 040648Z AUTO 20009KT 10SM CLR 15/03 A3007 RMK AO2 SLP133
T01500028 $





000
SAUS46 KLOX 040600
MTR9L2
METAR K9L2 040556Z AUTO 15007KT 10SM CLR 21/01 A2994 RMK AO2 SLP122
T02060006 10300 20194 51013 $





000
SAUS46 KLOX 040600
MTR9L2
METAR K9L2 040556Z AUTO 15007KT 10SM CLR 21/01 A2994 RMK AO2 SLP122
T02060006 10300 20194 51013 $





000
SAUS46 KLOX 040550 COR
MTRCQT
METAR KCQT 040547Z AUTO 00000KT 9SM CLR 14/12 A2996 RMK AO2 SLP144
T01440122 10211 20144 51011





000
SAUS46 KLOX 040550 COR
MTRCQT
METAR KCQT 040547Z AUTO 00000KT 9SM CLR 14/12 A2996 RMK AO2 SLP144
T01440122 10211 20144 51011





000
SAUS46 KLOX 040549
MTRSDB
METAR KSDB 040548Z AUTO 18011KT 10SM CLR 17/M01 A3007 RMK AO2 SLP133
T01671006 10233 20167 50007 $





000
SAUS46 KLOX 040458
MTR9L2
METAR K9L2 040456Z AUTO 25009KT 10SM CLR 22/01 A2994 RMK AO2 SLP124
T02220011 $





000
SAUS46 KLOX 040458
MTR9L2
METAR K9L2 040456Z AUTO 25009KT 10SM CLR 22/01 A2994 RMK AO2 SLP124
T02220011 $





000
SAUS45 KLOX 040454
MTRCQT
SPECI KCQT 040453Z AUTO 00000KT 10SM SCT009 14/12 A2996 RMK AO2
T01440122





000
SAUS45 KLOX 040454
MTRCQT
SPECI KCQT 040453Z AUTO 00000KT 10SM SCT009 14/12 A2996 RMK AO2
T01440122





000
SAUS46 KLOX 040449
MTRSDB
METAR KSDB 040448Z AUTO 18011KT 10SM CLR 17/00 A3007 RMK AO2 SLP134
T01720000 $





000
SAUS46 KLOX 040358
MTR9L2
METAR K9L2 040356Z AUTO 25009KT 10SM CLR 23/02 A2993 RMK AO2 SLP120
T02330017 $





000
SAUS46 KLOX 040350 COR
MTRCQT
METAR KCQT 040347Z AUTO 29004KT 10SM OVC008 16/12 A2994 RMK AO2
SLP137 T01560122





000
SAUS46 KLOX 040349
MTRSDB
METAR KSDB 040348Z AUTO 19009KT 10SM CLR 17/01 A3006 RMK AO2 SLP133
T01720006 $





000
SAUS46 KLOX 040301
MTR9L2
METAR K9L2 040256Z AUTO 06005KT 10SM CLR 25/M05 A2990 RMK AO2 SLP112
T02501050 55005 $





000
SAUS46 KLOX 040250 COR
MTRCQT
METAR KCQT 040247Z AUTO 28006KT 10SM OVC009 16/12 A2993 RMK AO2
SLP132 T01560122 53009





000
SAUS46 KLOX 040250 COR
MTRCQT
METAR KCQT 040247Z AUTO 28006KT 10SM OVC009 16/12 A2993 RMK AO2
SLP132 T01560122 53009





000
SAUS46 KLOX 040249
MTRSDB
METAR KSDB 040248Z AUTO 19012KT 10SM CLR 18/01 A3005 RMK AO2 SLP127
T01830006 55002 $





000
SAUS46 KLOX 040226 COR
MTRCQT
SPECI KCQT 040224Z AUTO 9SM BKN009 16/13 A2991 RMK AO2 T01610128





000
SAUS46 KLOX 040226 COR
MTRCQT
SPECI KCQT 040224Z AUTO 9SM BKN009 16/13 A2991 RMK AO2 T01610128





000
SAUS46 KLOX 040219 COR
MTRCQT
SPECI KCQT 040216Z AUTO 27004KT 9SM SCT009 16/13 A2991 RMK AO2
T01610128





000
SAUS46 KLOX 040200
MTR9L2
METAR K9L2 040156Z AUTO 07008KT 10SM CLR 28/M04 A2989 RMK AO2 SLP110
T02781044 $





000
SAUS46 KLOX 040150 COR
MTRCQT
METAR KCQT 040147Z AUTO 27006KT 10SM CLR 17/13 A2990 RMK AO2 SLP123
T01720128





000
SAUS46 KLOX 040149
MTRSDB
METAR KSDB 040148Z AUTO 20011KT 10SM CLR 21/01 A3004 RMK AO2 SLP125
T02060006 $





000
SAUS46 KLOX 040058
MTR9L2
METAR K9L2 040056Z AUTO 10008KT 10SM CLR 29/M04 A2990 RMK AO2 SLP115
T02891039 $





000
SAUS46 KLOX 040058
MTR9L2
METAR K9L2 040056Z AUTO 10008KT 10SM CLR 29/M04 A2990 RMK AO2 SLP115
T02891039 $





000
SAUS46 KLOX 040050 COR
MTRCQT
METAR KCQT 040047Z AUTO VRB05KT 10SM CLR 19/13 A2989 RMK AO2 SLP122
T01890133





000
SAUS46 KLOX 040050 COR
MTRCQT
METAR KCQT 040047Z AUTO VRB05KT 10SM CLR 19/13 A2989 RMK AO2 SLP122
T01890133





000
SAUS46 KLOX 040049
MTRSDB
METAR KSDB 040048Z AUTO 21012KT 10SM CLR 21/02 A3005 RMK AO2 SLP129
T02110017 $





000
SAUS46 KLOX 040049
MTRSDB
METAR KSDB 040048Z AUTO 21012KT 10SM CLR 21/02 A3005 RMK AO2 SLP129
T02110017 $





000
SAUS46 KLOX 032357
MTR9L2
METAR K9L2 032356Z AUTO 09008G16KT 10SM CLR 30/M04 A2992 RMK AO2
SLP118 T03001044 10306 20267 58022 $





000
SAUS45 KLOX 032353 COR
MTRCQT
METAR KCQT 032347Z AUTO VRB04KT 10SM CLR 21/13 A2990 RMK AO2 SLP124
T02060133 10250 20200 55009





000
SAUS45 KLOX 032353 COR
MTRCQT
METAR KCQT 032347Z AUTO VRB04KT 10SM CLR 21/13 A2990 RMK AO2 SLP124
T02060133 10250 20200 55009





000
SAUS46 KLOX 032349
MTRSDB
METAR KSDB 032348Z AUTO 18012G19KT 10SM CLR 23/02 A3005 RMK AO2
SLP129 T02330022 10256 20222 58013 $





000
SAUS46 KLOX 032349
MTRSDB
METAR KSDB 032348Z AUTO 18012G19KT 10SM CLR 23/02 A3005 RMK AO2
SLP129 T02330022 10256 20222 58013 $





000
SAUS46 KLOX 032251 COR
MTRCQT
METAR KCQT 032247Z AUTO VRB04KT 10SM CLR 24/12 A2989 RMK AO2 SLP121
T02390117





000
SAUS46 KLOX 032249
MTRSDB
METAR KSDB 032248Z AUTO 21009G22KT 10SM CLR 24/02 A3007 RMK AO2
SLP135 T02390022 $





000
SAUS46 KLOX 032249
MTRSDB
METAR KSDB 032248Z AUTO 21009G22KT 10SM CLR 24/02 A3007 RMK AO2
SLP135 T02390022 $





000
SAUS46 KLOX 032157
MTR9L2
METAR K9L2 032156Z AUTO 12007KT 10SM CLR 29/M06 A2997 RMK AO2 SLP135
T02941056 $





000
SAUS46 KLOX 032149
MTRCQT
METAR KCQT 032147Z AUTO VRB05KT 10SM CLR 22/13 A2992 RMK AO2 SLP130
T02220128





000
SAUS46 KLOX 032149
MTRSDB
METAR KSDB 032148Z AUTO 20011G19KT 10SM CLR 26/01 A3009 RMK AO2
SLP137 T02560011 $





000
SAUS46 KLOX 032057
MTR9L2
METAR K9L2 032056Z AUTO 09007G18KT 10SM CLR 29/M06 A2998 RMK AO2
SLP140 T02891061 58018 $





000
SAUS46 KLOX 032057
MTR9L2
METAR K9L2 032056Z AUTO 09007G18KT 10SM CLR 29/M06 A2998 RMK AO2
SLP140 T02891061 58018 $





000
SAUS46 KLOX 032049
MTRSDB
METAR KSDB 032048Z AUTO 13016G24KT 10SM CLR 24/M01 A3010 RMK AO2
SLP141 T02441006 58012 $





000
SAUS46 KLOX 032049
MTRSDB
METAR KSDB 032048Z AUTO 13016G24KT 10SM CLR 24/M01 A3010 RMK AO2
SLP141 T02441006 58012 $





000
SAUS46 KLOX 032048
MTRCQT
METAR KCQT 032047Z AUTO 27006KT 10SM CLR 24/12 A2993 RMK AO2 SLP133
T02440122 58010





000
SAUS46 KLOX 031957
MTR9L2
METAR K9L2 031956Z AUTO 10012G23KT 060V120 10SM CLR 29/M04 A3000 RMK
AO2 SLP146 T02941039 $





000
SAUS46 KLOX 031949
MTRSDB
METAR KSDB 031948Z AUTO 11014G27KT 10SM CLR 24/M01 A3011 RMK AO2 PK
WND 11029/1902 SLP146 T02391011 $





000
SAUS46 KLOX 031948
MTRCQT
METAR KCQT 031947Z AUTO VRB04KT 10SM CLR 24/13 A2994 RMK AO2 SLP137
T02390133





000
SAUS46 KLOX 031948
MTRCQT
METAR KCQT 031947Z AUTO VRB04KT 10SM CLR 24/13 A2994 RMK AO2 SLP137
T02390133





000
SAUS46 KLOX 031857
MTR9L2
METAR K9L2 031856Z AUTO 09015G20KT 10SM CLR 28/M02 A3003 RMK AO2
SLP153 T02831017 $





000
SAUS46 KLOX 031857
MTR9L2
METAR K9L2 031856Z AUTO 09015G20KT 10SM CLR 28/M02 A3003 RMK AO2
SLP153 T02831017 $





000
SAUS46 KLOX 031849
MTRSDB
METAR KSDB 031848Z AUTO 11022G30KT 10SM CLR 23/M02 A3013 RMK AO2 PK
WND 10030/1847 SLP152 T02281017 $





000
SAUS46 KLOX 031848
MTRCQT
METAR KCQT 031847Z AUTO VRB03KT 10SM CLR 23/13 A2996 RMK AO2 SLP142
T02330133





000
SAUS46 KLOX 031757
MTR9L2
METAR K9L2 031756Z AUTO 10009G21KT 10SM CLR 27/M01 A3004 RMK AO2
SLP157 T02671011 10272 20083 58004 $





000
SAUS46 KLOX 031757
MTR9L2
METAR K9L2 031756Z AUTO 10009G21KT 10SM CLR 27/M01 A3004 RMK AO2
SLP157 T02671011 10272 20083 58004 $





000
SAUS46 KLOX 031749
MTRSDB
METAR KSDB 031748Z AUTO 11014G23KT 10SM CLR 22/M01 A3014 RMK AO2
SLP156 T02221006 10222 20139 51005 $





000
SAUS46 KLOX 031748
MTRCQT
METAR KCQT 031747Z AUTO VRB04KT 10SM CLR 24/14 A2996 RMK AO2 SLP144
T02390139 10250 20139 58003





000
SAUS46 KLOX 031700
MTR9L2
METAR K9L2 031656Z AUTO 12003KT 10SM CLR 22/01 A3005 RMK AO2 SLP164
T02220006 $





000
SAUS46 KLOX 031700
MTR9L2
METAR K9L2 031656Z AUTO 12003KT 10SM CLR 22/01 A3005 RMK AO2 SLP164
T02220006 $





000
SAUS46 KLOX 031649
MTRSDB
METAR KSDB 031648Z AUTO 10016G23KT 10SM CLR 21/00 A3013 RMK AO2
SLP156 T02110000 $





000
SAUS46 KLOX 031649
MTRSDB
METAR KSDB 031648Z AUTO 10016G23KT 10SM CLR 21/00 A3013 RMK AO2
SLP156 T02110000 $





000
SAUS46 KLOX 031648
MTRCQT
METAR KCQT 031647Z AUTO 00000KT 10SM CLR 22/13 A2997 RMK AO2 SLP146
T02220128





000
SAUS46 KLOX 031648
MTRCQT
METAR KCQT 031647Z AUTO 00000KT 10SM CLR 22/13 A2997 RMK AO2 SLP146
T02220128





000
SAUS46 KLOX 031557
MTR9L2
METAR K9L2 031556Z AUTO 00000KT 10SM CLR 18/M01 A3005 RMK AO2 SLP167
T01831006 $





000
SAUS46 KLOX 031549
MTRSDB
METAR KSDB 031548Z AUTO 10011KT 10SM CLR 19/01 A3013 RMK AO2 SLP157
T01940006 $





000
SAUS46 KLOX 031549
MTRSDB
METAR KSDB 031548Z AUTO 10011KT 10SM CLR 19/01 A3013 RMK AO2 SLP157
T01940006 $





000
SAUS46 KLOX 031548
MTRCQT
METAR KCQT 031547Z AUTO 00000KT 8SM CLR 20/13 A2997 RMK AO2 SLP147
T02000133





000
SAUS46 KLOX 031548
MTRCQT
METAR KCQT 031547Z AUTO 00000KT 8SM CLR 20/13 A2997 RMK AO2 SLP147
T02000133





000
SAUS46 KLOX 031458
MTR9L2
METAR K9L2 031456Z AUTO 19003KT 10SM CLR 14/00 A3005 RMK AO2 SLP166
T01440000 53012 $





000
SAUS46 KLOX 031449
MTRSDB
METAR KSDB 031448Z AUTO 10012KT 10SM CLR 18/00 A3012 RMK AO2 SLP154
T01830000 53008 $





000
SAUS46 KLOX 031448
MTRCQT
METAR KCQT 031447Z AUTO 00000KT 8SM CLR 17/13 A2997 RMK AO2 SLP147
T01720133 51007





000
SAUS46 KLOX 031357
MTR9L2
METAR K9L2 031356Z AUTO 00000KT 10SM CLR 12/M02 A3004 RMK AO2 SLP161
T01171017 $





000
SAUS46 KLOX 031349
MTRSDB
METAR KSDB 031348Z AUTO 09012KT 10SM CLR 16/01 A3011 RMK AO2 SLP150
T01610006 $





000
SAUS46 KLOX 031348
MTRCQT
METAR KCQT 031347Z AUTO 00000KT 7SM CLR 15/13 A2997 RMK AO2 SLP146
T01500128





000
SAUS46 KLOX 031257
MTR9L2
METAR K9L2 031256Z AUTO 00000KT 10SM CLR 09/M03 A3002 RMK AO2 SLP156
T00891033 $





000
SAUS46 KLOX 031257
MTR9L2
METAR K9L2 031256Z AUTO 00000KT 10SM CLR 09/M03 A3002 RMK AO2 SLP156
T00891033 $





000
SAUS46 KLOX 031249
MTRSDB
METAR KSDB 031248Z AUTO 08010KT 10SM CLR 14/02 A3009 RMK AO2 SLP146
T01390022 $





000
SAUS46 KLOX 031248
MTRCQT
METAR KCQT 031247Z AUTO 00000KT 10SM CLR 14/12 A2995 RMK AO2 SLP141
T01440117





000
SAUS46 KLOX 031158
MTR9L2
METAR K9L2 031156Z AUTO 00000KT 10SM CLR 10/M04 A3002 RMK AO2 SLP154
T01001039 10189 20094 53001 $





000
SAUS46 KLOX 031158
MTR9L2
METAR K9L2 031156Z AUTO 00000KT 10SM CLR 10/M04 A3002 RMK AO2 SLP154
T01001039 10189 20094 53001 $





000
SAUS46 KLOX 031149
MTRSDB
METAR KSDB 031148Z AUTO 03007KT 10SM CLR 14/03 A3009 RMK AO2 SLP144
T01390028 10167 20139 56005 $





000
SAUS46 KLOX 031149
MTRSDB
METAR KSDB 031148Z AUTO 03007KT 10SM CLR 14/03 A3009 RMK AO2 SLP144
T01390028 10167 20139 56005 $





000
SAUS46 KLOX 031148
MTRCQT
METAR KCQT 031147Z AUTO 00000KT 10SM CLR 14/12 A2995 RMK AO2 SLP139
T01440117 10156 20144 55007





000
SAUS46 KLOX 031148
MTRCQT
METAR KCQT 031147Z AUTO 00000KT 10SM CLR 14/12 A2995 RMK AO2 SLP139
T01440117 10156 20144 55007





000
SAUS46 KLOX 031057
MTR9L2
METAR K9L2 031056Z AUTO 00000KT 10SM CLR 11/M04 A3001 RMK AO2 SLP154
T01061039 $





000
SAUS46 KLOX 031057
MTR9L2
METAR K9L2 031056Z AUTO 00000KT 10SM CLR 11/M04 A3001 RMK AO2 SLP154
T01061039 $





000
SAUS46 KLOX 031049
MTRSDB
METAR KSDB 031048Z AUTO 03005KT 10SM CLR 14/03 A3009 RMK AO2 SLP145
T01390033 $





000
SAUS46 KLOX 031049
MTRSDB
METAR KSDB 031048Z AUTO 03005KT 10SM CLR 14/03 A3009 RMK AO2 SLP145
T01390033 $





000
SAUS46 KLOX 031048
MTRCQT
METAR KCQT 031047Z AUTO 00000KT 10SM CLR 15/12 A2994 RMK AO2 SLP138
T01500117





000
SAUS46 KLOX 031000
MTR9L2
METAR K9L2 030956Z AUTO 00000KT 10SM CLR 12/M03 A3001 RMK AO2 SLP151
T01171033 $





000
SAUS46 KLOX 030949
MTRSDB
METAR KSDB 030948Z AUTO 36003KT 10SM CLR 14/03 A3010 RMK AO2 SLP149
T01440033 $





000
SAUS46 KLOX 030948
MTRCQT
METAR KCQT 030947Z AUTO 00000KT 10SM CLR 15/12 A2995 RMK AO2 SLP142
T01500117





000
SAUS46 KLOX 030858
MTR9L2
METAR K9L2 030856Z AUTO 00000KT 10SM CLR 12/M04 A3001 RMK AO2 SLP152
T01171044 58003 $





000
SAUS46 KLOX 030849
MTRSDB
METAR KSDB 030848Z AUTO 36007KT 10SM CLR 15/04 A3011 RMK AO2 SLP148
T01500039 58006 $





000
SAUS46 KLOX 030848
MTRCQT
METAR KCQT 030847Z AUTO 00000KT 10SM CLR 15/12 A2997 RMK AO2 SLP147
T01500117 58007





000
SAUS46 KLOX 030800
MTR9L2
METAR K9L2 030756Z AUTO 00000KT 10SM CLR 14/M02 A3002 RMK AO2 SLP155
T01391022 402830094 $





000
SAUS46 KLOX 030749
MTRSDB
METAR KSDB 030748Z AUTO 36005KT 10SM CLR 14/04 A3012 RMK AO2 SLP154
T01440044 402280117 $





000
SAUS46 KLOX 030748
MTRCQT
METAR KCQT 030747Z AUTO 00000KT 10SM CLR 15/12 A2999 RMK AO2 SLP152
T01500117 402220133





000
SAUS46 KLOX 030700
MTR9L2
METAR K9L2 030656Z AUTO 00000KT 10SM CLR 17/01 A3002 RMK AO2 SLP154
T01720011 $





000
SAUS46 KLOX 030700
MTR9L2
METAR K9L2 030656Z AUTO 00000KT 10SM CLR 17/01 A3002 RMK AO2 SLP154
T01720011 $





000
SAUS46 KLOX 030649
MTRSDB
METAR KSDB 030648Z AUTO 33009KT 10SM CLR 16/04 A3012 RMK AO2 SLP153
T01560039 $





000
SAUS46 KLOX 030648
MTRCQT
METAR KCQT 030647Z AUTO 00000KT 10SM CLR 16/12 A2999 RMK AO2 SLP154
T01560117





000
SAUS46 KLOX 030648
MTRCQT
METAR KCQT 030647Z AUTO 00000KT 10SM CLR 16/12 A2999 RMK AO2 SLP154
T01560117





000
SAUS46 KLOX 030600
MTR9L2
METAR K9L2 030556Z AUTO 08004KT 10SM CLR 19/M02 A3002 RMK AO2 SLP153
T01891017 10283 20189 51015 $





000
SAUS46 KLOX 030600
MTR9L2
METAR K9L2 030556Z AUTO 08004KT 10SM CLR 19/M02 A3002 RMK AO2 SLP153
T01891017 10283 20189 51015 $





000
SAUS46 KLOX 030549
MTRSDB
METAR KSDB 030548Z AUTO 27003KT 10SM CLR 17/03 A3013 RMK AO2 SLP156
T01670033 10217 20161 51010 $





000
SAUS46 KLOX 030549
MTRSDB
METAR KSDB 030548Z AUTO 27003KT 10SM CLR 17/03 A3013 RMK AO2 SLP156
T01670033 10217 20161 51010 $





000
SAUS46 KLOX 030548
MTRCQT
METAR KCQT 030547Z AUTO 00000KT 10SM CLR 16/12 A2999 RMK AO2 SLP154
T01560117 10206 20156 53014





000
SAUS46 KLOX 030548
MTRCQT
METAR KCQT 030547Z AUTO 00000KT 10SM CLR 16/12 A2999 RMK AO2 SLP154
T01560117 10206 20156 53014





000
SAUS46 KLOX 030458
MTR9L2
METAR K9L2 030456Z AUTO 06005KT 10SM CLR 19/M03 A3002 RMK AO2 SLP152
T01941033 $





000
SAUS46 KLOX 030458
MTR9L2
METAR K9L2 030456Z AUTO 06005KT 10SM CLR 19/M03 A3002 RMK AO2 SLP152
T01941033 $





000
SAUS46 KLOX 030449
MTRSDB
METAR KSDB 030448Z AUTO 22003KT 10SM CLR 17/03 A3013 RMK AO2 SLP156
T01670033 $





000
SAUS46 KLOX 030448
MTRCQT
METAR KCQT 030447Z AUTO 00000KT 10SM CLR 16/12 A2998 RMK AO2 SLP150
T01560117





000
SAUS46 KLOX 030400
MTR9L2
METAR K9L2 030356Z AUTO 06004KT 10SM CLR 21/M04 A2999 RMK AO2 SLP147
T02061044 $





000
SAUS46 KLOX 030349
MTRSDB
METAR KSDB 030348Z AUTO 18004KT 10SM CLR 17/03 A3011 RMK AO2 SLP152
T01670033 $





000
SAUS46 KLOX 030348
MTRCQT
METAR KCQT 030347Z AUTO 00000KT 10SM CLR 16/12 A2996 RMK AO2 SLP143
T01560117





000
SAUS46 KLOX 030258
MTR9L2
METAR K9L2 030256Z AUTO 08004KT 10SM CLR 24/M04 A2998 RMK AO2 SLP140
T02391039 53003 $





000
SAUS46 KLOX 030258
MTR9L2
METAR K9L2 030256Z AUTO 08004KT 10SM CLR 24/M04 A2998 RMK AO2 SLP140
T02391039 53003 $





000
SAUS46 KLOX 030249
MTRSDB
METAR KSDB 030248Z AUTO 17010KT 10SM CLR 17/05 A3010 RMK AO2 SLP150
T01670050 53004 $





000
SAUS46 KLOX 030249
MTRSDB
METAR KSDB 030248Z AUTO 17010KT 10SM CLR 17/05 A3010 RMK AO2 SLP150
T01670050 53004 $





000
SAUS46 KLOX 030248
MTRCQT
METAR KCQT 030247Z AUTO 00000KT 10SM CLR 17/12 A2995 RMK AO2 SLP140
T01670122 53002





000
SAUS46 KLOX 030158
MTR9L2
METAR K9L2 030156Z AUTO 05004KT 10SM CLR 27/M04 A2996 RMK AO2 SLP135
T02671039 $





000
SAUS46 KLOX 030149
MTRSDB
METAR KSDB 030148Z AUTO 17009KT 10SM OVC090 19/04 A3009 RMK AO2
SLP145 T01940044 $





000
SAUS46 KLOX 030149
MTRCQT
METAR KCQT 030147Z AUTO 27003KT 10SM CLR 18/12 A2994 RMK AO2 SLP136
T01830122





000
SAUS46 KLOX 030149
MTRSDB
METAR KSDB 030148Z AUTO 17009KT 10SM OVC090 19/04 A3009 RMK AO2
SLP145 T01940044 $





000
SAUS46 KLOX 030058
MTR9L2
METAR K9L2 030056Z AUTO 04008KT 10SM CLR 27/M03 A2996 RMK AO2 SLP135
T02721028 $





000
SAUS46 KLOX 030049
MTRSDB
METAR KSDB 030048Z AUTO 20007KT 10SM CLR 19/04 A3008 RMK AO2 SLP145
T01940044 $





000
SAUS46 KLOX 030049
MTRSDB
METAR KSDB 030048Z AUTO 20007KT 10SM CLR 19/04 A3008 RMK AO2 SLP145
T01940044 $





000
SAUS46 KLOX 030048
MTRCQT
METAR KCQT 030047Z AUTO 10SM CLR 20/12 A2994 RMK AO2 SLP135
T02000122





000
SAUS46 KLOX 030048
MTRCQT
METAR KCQT 030047Z AUTO 10SM CLR 20/12 A2994 RMK AO2 SLP135
T02000122





000
SAUS46 KLOX 022358
MTR9L2
METAR K9L2 022356Z AUTO 06007KT 10SM CLR 28/M02 A2997 RMK AO2 SLP136
T02781017 10283 20239 56015 $





000
SAUS46 KLOX 022358
MTR9L2
METAR K9L2 022356Z AUTO 06007KT 10SM CLR 28/M02 A2997 RMK AO2 SLP136
T02781017 10283 20239 56015 $





000
SAUS46 KLOX 022349
MTRSDB
METAR KSDB 022348Z AUTO 19009KT 10SM FEW085 SCT100 21/04 A3008 RMK
AO2 SLP144 T02110044 10228 20189 56010 $





000
SAUS46 KLOX 022349
MTRCQT
METAR KCQT 022347Z AUTO VRB05KT 10SM CLR 21/12 A2994 RMK AO2 SLP138
T02060122 10222 20200 56014





000
SAUS46 KLOX 022300
MTR9L2
METAR K9L2 022256Z AUTO 11009KT 10SM SCT075 27/M01 A2997 RMK AO2
SLP138 T02721006 $





000
SAUS46 KLOX 022300
MTR9L2
METAR K9L2 022256Z AUTO 11009KT 10SM SCT075 27/M01 A2997 RMK AO2
SLP138 T02721006 $





000
SAUS46 KLOX 022249
MTRSDB
METAR KSDB 022248Z AUTO 19009KT 10SM BKN070 BKN110 22/03 A3009 RMK
AO2 SLP145 T02170028 $





000
SAUS46 KLOX 022249
MTRSDB
METAR KSDB 022248Z AUTO 19009KT 10SM BKN070 BKN110 22/03 A3009 RMK
AO2 SLP145 T02170028 $





000
SAUS46 KLOX 022249
MTRCQT
METAR KCQT 022247Z AUTO 28008KT 10SM CLR 21/12 A2995 RMK AO2 SLP140
T02110122





000
SAUS46 KLOX 022249
MTRCQT
METAR KCQT 022247Z AUTO 28008KT 10SM CLR 21/12 A2995 RMK AO2 SLP140
T02110122





000
SAUS46 KLOX 022157
MTR9L2
METAR K9L2 022156Z AUTO 08009G20KT 10SM CLR 28/M01 A2999 RMK AO2
SLP143 T02781006 $





000
SAUS46 KLOX 022149
MTRSDB
METAR KSDB 022148Z AUTO 15007G20KT 120V180 10SM FEW075 BKN110 21/02
A3011 RMK AO2 SLP152 T02060017 $





000
SAUS46 KLOX 022148
MTRCQT
METAR KCQT 022147Z AUTO 27008KT 10SM CLR 21/12 A2997 RMK AO2 SLP146
T02060117





000
SAUS46 KLOX 022100
MTR9L2
METAR K9L2 022056Z AUTO 07005KT 10SM FEW070 SCT085 28/M01 A3001 RMK
AO2 SLP149 T02781006 58017 $





000
SAUS46 KLOX 022049
MTRSDB
METAR KSDB 022048Z AUTO 11009KT 10SM FEW070 22/02 A3012 RMK AO2
SLP157 T02170017 58008





000
SAUS46 KLOX 022048
MTRCQT
METAR KCQT 022047Z AUTO VRB05KT 10SM CLR 21/12 A2998 RMK AO2 SLP152
T02110122 58013





000
SAUS46 KLOX 022048
MTRCQT
METAR KCQT 022047Z AUTO VRB05KT 10SM CLR 21/12 A2998 RMK AO2 SLP152
T02110122 58013





    US Dept of Commerce
    National Oceanic and Atmospheric Administration
    National Weather Service
    1325 East West Highway
    Silver Spring, MD 20910
    Page Author: NWS Internet Services Team
Disclaimer
Information Quality
Credits
Glossary
Privacy Policy
Freedom of Information Act (FOIA)
About Us
Career Opportunities